Wetterstation Vordersexau
Wetterdaten: Woche 15.07.13 - 21.07.13 (KW29)
Datum Zeit Temp. A. Feuchte A. Luftdruck Regen Wind Richtung Taupunkt Windchill Windben
15.07.2013 00:00 16,1 C 76 % 1019,2 hPa 0,0 l/m 0,0 km/h O-NO 11,9 C 16,1 C 0,0 km/h
15.07.2013 01:00 15,2 C 78 % 1018,9 hPa 0,0 l/m 0,0 km/h O-NO 11,4 C 15,2 C 0,0 km/h
15.07.2013 02:00 15,1 C 79 % 1019,2 hPa 0,0 l/m 0,0 km/h O-NO 11,5 C 15,1 C 0,0 km/h
15.07.2013 03:00 13,9 C 80 % 1018,8 hPa 0,0 l/m 0,0 km/h S-SO 10,5 C 13,9 C 0,0 km/h
15.07.2013 04:00 13,1 C 81 % 1019,0 hPa 0,0 l/m 0,0 km/h SO 9,9 C 13,1 C 0,0 km/h
15.07.2013 05:00 11,8 C 82 % 1019,1 hPa 0,0 l/m 0,0 km/h SO 8,8 C 11,8 C 0,0 km/h
15.07.2013 06:00 12,3 C 81 % 1019,6 hPa 0,0 l/m 0,0 km/h O-NO 9,1 C 12,3 C 0,0 km/h
15.07.2013 07:00 14,2 C 81 % 1019,9 hPa 0,0 l/m 0,0 km/h N-NO 11,0 C 14,2 C 0,0 km/h
15.07.2013 08:00 23,0 C 61 % 1020,3 hPa 0,0 l/m 0,0 km/h W 15,1 C 23,0 C 0,0 km/h
15.07.2013 09:00 26,2 C 51 % 1020,5 hPa 0,0 l/m 1,9 km/h N-NO 15,2 C 26,2 C 1,1 km/h
15.07.2013 10:00 27,6 C 49 % 1020,4 hPa 0,0 l/m 0,0 km/h O-NO 15,9 C 27,6 C 0,0 km/h
15.07.2013 11:00 30,1 C 38 % 1020,2 hPa 0,0 l/m 3,2 km/h N-NO 14,2 C 30,1 C 1,8 km/h
15.07.2013 12:00 27,8 C 41 % 1020,3 hPa 0,0 l/m 1,9 km/h N-NW 13,3 C 27,8 C 1,1 km/h
15.07.2013 13:00 28,4 C 39 % 1019,8 hPa 0,0 l/m 20,1 km/h N-NO 13,1 C 27,1 C 11,2 km/h
15.07.2013 14:00 28,9 C 37 % 1019,8 hPa 0,0 l/m 1,3 km/h O-NO 12,7 C 28,9 C 0,7 km/h
15.07.2013 15:00 30,4 C 36 % 1019,4 hPa 0,0 l/m 1,3 km/h NO 13,6 C 30,4 C 0,7 km/h
15.07.2013 16:00 31,7 C 33 % 1019,3 hPa 0,0 l/m 0,0 km/h NO 13,4 C 31,7 C 0,0 km/h
15.07.2013 17:00 33,0 C 31 % 1019,0 hPa 0,0 l/m 5,8 km/h NO 13,6 C 33,0 C 3,2 km/h
15.07.2013 18:00 34,1 C 29 % 1018,9 hPa 0,0 l/m 11,7 km/h NO 13,5 C 34,1 C 6,5 km/h
15.07.2013 19:00 30,9 C 32 % 1019,0 hPa 0,0 l/m 0,0 km/h O-NO 12,3 C 30,9 C 0,0 km/h
15.07.2013 20:00 24,2 C 42 % 1019,0 hPa 0,0 l/m 0,0 km/h O-NO 10,5 C 24,2 C 0,0 km/h
15.07.2013 21:00 19,8 C 56 % 1019,2 hPa 0,0 l/m 0,0 km/h O-NO 10,8 C 19,8 C 0,0 km/h
15.07.2013 22:00 17,2 C 68 % 1019,7 hPa 0,0 l/m 0,0 km/h O 11,2 C 17,2 C 0,0 km/h
15.07.2013 23:00 16,2 C 72 % 1020,1 hPa 0,0 l/m 0,0 km/h S-SO 11,1 C 16,2 C 0,0 km/h
16.07.2013 00:00 15,6 C 74 % 1020,1 hPa 0,0 l/m 0,0 km/h S-SO 11,0 C 15,6 C 0,0 km/h
16.07.2013 01:00 15,5 C 75 % 1020,0 hPa 0,0 l/m 0,0 km/h S 11,1 C 15,5 C 0,0 km/h
16.07.2013 02:00 15,2 C 75 % 1019,9 hPa 0,0 l/m 0,0 km/h O-NO 10,8 C 15,2 C 0,0 km/h
16.07.2013 03:00 14,3 C 75 % 1019,8 hPa 0,0 l/m 0,0 km/h S-SO 9,9 C 14,3 C 0,0 km/h
16.07.2013 04:00 12,5 C 80 % 1019,6 hPa 0,0 l/m 0,0 km/h SO 9,1 C 12,5 C 0,0 km/h
16.07.2013 05:00 11,9 C 81 % 1019,4 hPa 0,0 l/m 0,0 km/h SO 8,7 C 11,9 C 0,0 km/h
16.07.2013 06:00 11,3 C 82 % 1019,6 hPa 0,0 l/m 0,0 km/h NO 8,3 C 11,3 C 0,0 km/h
16.07.2013 07:00 13,6 C 82 % 1019,8 hPa 0,0 l/m 0,0 km/h N-NW 10,6 C 13,6 C 0,0 km/h
16.07.2013 08:00 25,3 C 54 % 1019,9 hPa 0,0 l/m 0,0 km/h N-NO 15,3 C 25,3 C 0,0 km/h
16.07.2013 09:00 27,8 C 46 % 1019,9 hPa 0,0 l/m 0,0 km/h W-NW 15,1 C 27,8 C 0,0 km/h
16.07.2013 10:00 28,1 C 45 % 1019,8 hPa 0,0 l/m 0,0 km/h N-NW 15,0 C 28,1 C 0,0 km/h
16.07.2013 11:00 30,9 C 43 % 1019,4 hPa 0,0 l/m 0,0 km/h N-NW 16,8 C 30,9 C 0,0 km/h
16.07.2013 12:00 29,7 C 42 % 1019,0 hPa 0,0 l/m 18,8 km/h N-NW 15,4 C 28,8 C 10,4 km/h
16.07.2013 13:00 30,8 C 39 % 1018,3 hPa 0,0 l/m 23,3 km/h N-NO 15,2 C 30,1 C 13,0 km/h
16.07.2013 14:00 31,1 C 37 % 1017,9 hPa 0,0 l/m 7,1 km/h N 14,7 C 31,1 C 4,0 km/h
16.07.2013 15:00 32,9 C 35 % 1017,4 hPa 0,0 l/m 0,0 km/h O-NO 15,4 C 32,9 C 0,0 km/h
16.07.2013 16:00 34,8 C 32 % 1017,2 hPa 0,0 l/m 5,8 km/h NO 15,6 C 34,8 C 3,2 km/h
16.07.2013 17:00 35,6 C 30 % 1017,2 hPa 0,0 l/m 8,4 km/h N-NO 15,3 C 35,6 C 4,7 km/h
16.07.2013 18:00 35,1 C 30 % 1016,9 hPa 0,0 l/m 2,6 km/h O-NO 14,9 C 35,1 C 1,4 km/h
16.07.2013 19:00 32,5 C 33 % 1017,1 hPa 0,0 l/m 3,2 km/h NO 14,1 C 32,5 C 1,8 km/h
16.07.2013 20:00 26,2 C 42 % 1017,5 hPa 0,0 l/m 0,0 km/h SO 12,3 C 26,2 C 0,0 km/h
16.07.2013 21:00 21,6 C 56 % 1017,5 hPa 0,0 l/m 0,0 km/h S 12,4 C 21,6 C 0,0 km/h
16.07.2013 22:00 18,6 C 66 % 1017,8 hPa 0,0 l/m 0,0 km/h NO 12,1 C 18,6 C 0,0 km/h
16.07.2013 23:00 17,5 C 71 % 1017,9 hPa 0,0 l/m 0,0 km/h O 12,2 C 17,5 C 0,0 km/h
17.07.2013 00:00 16,8 C 74 % 1018,1 hPa 0,0 l/m 0,0 km/h O 12,1 C 16,8 C 0,0 km/h
17.07.2013 01:00 15,9 C 75 % 1018,1 hPa 0,0 l/m 0,0 km/h S 11,5 C 15,9 C 0,0 km/h
17.07.2013 02:00 14,3 C 79 % 1018,2 hPa 0,0 l/m 0,0 km/h O 10,7 C 14,3 C 0,0 km/h
17.07.2013 03:00 13,6 C 81 % 1018,4 hPa 0,0 l/m 0,0 km/h O-NO 10,4 C 13,6 C 0,0 km/h
17.07.2013 04:00 13,4 C 82 % 1018,2 hPa 0,0 l/m 0,0 km/h O-SO 10,4 C 13,4 C 0,0 km/h
17.07.2013 05:00 12,8 C 82 % 1018,2 hPa 0,0 l/m 0,0 km/h O-SO 9,8 C 12,8 C 0,0 km/h
17.07.2013 06:00 13,3 C 82 % 1018,5 hPa 0,0 l/m 0,0 km/h S-SO 10,3 C 13,3 C 0,0 km/h
17.07.2013 07:00 15,9 C 81 % 1018,9 hPa 0,0 l/m 0,0 km/h NO 12,6 C 15,9 C 0,0 km/h
17.07.2013 08:00 19,4 C 74 % 1018,8 hPa 0,0 l/m 0,0 km/h O-NO 14,6 C 19,4 C 0,0 km/h
17.07.2013 09:00 22,3 C 64 % 1018,9 hPa 0,0 l/m 5,2 km/h NW 15,2 C 22,3 C 2,9 km/h
17.07.2013 10:00 28,7 C 47 % 1018,8 hPa 0,0 l/m 0,0 km/h N 16,3 C 28,7 C 0,0 km/h
17.07.2013 11:00 27,5 C 49 % 1018,5 hPa 0,0 l/m 3,2 km/h N-NO 15,8 C 27,5 C 1,8 km/h
17.07.2013 12:00 25,2 C 54 % 1018,7 hPa 0,0 l/m 0,0 km/h N-NO 15,2 C 25,2 C 0,0 km/h
17.07.2013 13:00 25,1 C 55 % 1018,7 hPa 0,0 l/m 0,0 km/h N 15,4 C 25,1 C 0,0 km/h
17.07.2013 14:00 23,1 C 64 % 1018,8 hPa 0,0 l/m 0,0 km/h S-SW 15,9 C 23,1 C 0,0 km/h
17.07.2013 15:00 23,0 C 72 % 1018,6 hPa 0,0 l/m 3,2 km/h S-SO 17,7 C 23,0 C 1,8 km/h
17.07.2013 16:00 26,7 C 62 % 1018,0 hPa 0,0 l/m 0,0 km/h O-NO 18,8 C 26,7 C 0,0 km/h
17.07.2013 17:00 25,5 C 63 % 1017,8 hPa 0,0 l/m 0,0 km/h NO 17,9 C 25,5 C 0,0 km/h
17.07.2013 18:00 26,5 C 60 % 1017,2 hPa 0,0 l/m 0,0 km/h N 18,1 C 26,5 C 0,0 km/h
17.07.2013 19:00 25,9 C 63 % 1017,2 hPa 0,0 l/m 0,0 km/h SO 18,3 C 25,9 C 0,0 km/h
17.07.2013 20:00 25,0 C 65 % 1017,1 hPa 0,0 l/m 0,0 km/h S-SO 17,9 C 25,0 C 0,0 km/h
17.07.2013 21:00 21,9 C 72 % 1017,2 hPa 0,0 l/m 0,0 km/h O-SO 16,6 C 21,9 C 0,0 km/h
17.07.2013 22:00 19,3 C 78 % 1017,9 hPa 0,0 l/m 0,0 km/h O 15,4 C 19,3 C 0,0 km/h
17.07.2013 23:00 18,9 C 80 % 1018,0 hPa 0,0 l/m 0,0 km/h NO 15,4 C 18,9 C 0,0 km/h
18.07.2013 00:00 18,4 C 81 % 1017,9 hPa 0,0 l/m 0,0 km/h NO 15,1 C 18,4 C 0,0 km/h
18.07.2013 01:00 17,7 C 81 % 1017,6 hPa 0,0 l/m 0,0 km/h O-SO 14,4 C 17,7 C 0,0 km/h
18.07.2013 02:00 17,1 C 81 % 1017,5 hPa 0,0 l/m 0,0 km/h SO 13,8 C 17,1 C 0,0 km/h
18.07.2013 03:00 15,6 C 81 % 1017,3 hPa 0,0 l/m 0,0 km/h O 12,3 C 15,6 C 0,0 km/h
18.07.2013 04:00 15,5 C 80 % 1017,1 hPa 0,0 l/m 0,0 km/h NW 12,1 C 15,5 C 0,0 km/h
18.07.2013 05:00 16,5 C 80 % 1017,1 hPa 0,0 l/m 0,0 km/h W-NW 13,0 C 16,5 C 0,0 km/h
18.07.2013 06:00 16,3 C 80 % 1017,4 hPa 0,0 l/m 0,0 km/h S 12,8 C 16,3 C 0,0 km/h
18.07.2013 07:00 16,7 C 79 % 1017,8 hPa 0,0 l/m 0,0 km/h S-SW 13,0 C 16,7 C 0,0 km/h
18.07.2013 08:00 18,1 C 76 % 1017,7 hPa 0,0 l/m 0,0 km/h W-NW 13,8 C 18,1 C 0,0 km/h
18.07.2013 09:00 20,5 C 81 % 1017,9 hPa 0,0 l/m 0,6 km/h NW 17,1 C 20,5 C 0,4 km/h
18.07.2013 10:00 22,3 C 77 % 1017,8 hPa 0,0 l/m 1,9 km/h SW 18,1 C 22,3 C 1,1 km/h
18.07.2013 11:00 23,2 C 73 % 1017,7 hPa 0,0 l/m 1,9 km/h NO 18,1 C 23,2 C 1,1 km/h
18.07.2013 12:00 28,7 C 59 % 1017,5 hPa 0,0 l/m 9,1 km/h NW 19,9 C 28,4 C 5,0 km/h
18.07.2013 13:00 30,3 C 54 % 1016,8 hPa 0,0 l/m 0,0 km/h N 19,9 C 30,3 C 0,0 km/h
18.07.2013 14:00 30,6 C 49 % 1016,5 hPa 0,0 l/m 21,4 km/h O-NO 18,6 C 29,9 C 11,9 km/h
18.07.2013 15:00 32,3 C 43 % 1016,1 hPa 0,0 l/m 5,2 km/h NO 18,1 C 32,3 C 2,9 km/h
18.07.2013 16:00 32,4 C 42 % 1015,6 hPa 0,0 l/m 9,7 km/h O-NO 17,8 C 32,3 C 5,4 km/h
18.07.2013 17:00 33,3 C 40 % 1015,4 hPa 0,0 l/m 1,3 km/h NO 17,8 C 33,3 C 0,7 km/h
18.07.2013 18:00 29,0 C 48 % 1015,5 hPa 0,0 l/m 0,0 km/h N 16,9 C 29,0 C 0,0 km/h
18.07.2013 19:00 27,8 C 55 % 1015,3 hPa 0,0 l/m 0,0 km/h O-NO 17,9 C 27,8 C 0,0 km/h
18.07.2013 20:00 26,1 C 56 % 1015,5 hPa 0,0 l/m 0,0 km/h O-SO 16,6 C 26,1 C 0,0 km/h
18.07.2013 21:00 23,2 C 58 % 1015,7 hPa 0,0 l/m 0,0 km/h N-NO 14,5 C 23,2 C 0,0 km/h
18.07.2013 22:00 19,8 C 70 % 1016,4 hPa 0,0 l/m 0,0 km/h S-SO 14,2 C 19,8 C 0,0 km/h
18.07.2013 23:00 19,2 C 72 % 1016,3 hPa 0,0 l/m 0,0 km/h SW 14,0 C 19,2 C 0,0 km/h
19.07.2013 00:00 19,2 C 71 % 1016,4 hPa 0,0 l/m 0,0 km/h S 13,8 C 19,2 C 0,0 km/h
19.07.2013 01:00 16,6 C 77 % 1016,2 hPa 0,0 l/m 0,0 km/h SO 12,5 C 16,6 C 0,0 km/h
19.07.2013 02:00 15,5 C 80 % 1016,0 hPa 0,0 l/m 0,0 km/h S-SO 12,1 C 15,5 C 0,0 km/h
19.07.2013 03:00 14,5 C 81 % 1016,1 hPa 0,0 l/m 0,0 km/h S 11,3 C 14,5 C 0,0 km/h
19.07.2013 04:00 13,3 C 82 % 1016,2 hPa 0,0 l/m 0,0 km/h O-NO 10,3 C 13,3 C 0,0 km/h
19.07.2013 05:00 12,9 C 81 % 1016,3 hPa 0,0 l/m 0,0 km/h O-NO 9,7 C 12,9 C 0,0 km/h
19.07.2013 06:00 13,4 C 77 % 1016,8 hPa 0,0 l/m 0,0 km/h O-SO 9,5 C 13,4 C 0,0 km/h
19.07.2013 07:00 15,4 C 77 % 1017,3 hPa 0,0 l/m 0,0 km/h N 11,4 C 15,4 C 0,0 km/h
19.07.2013 08:00 24,9 C 63 % 1017,4 hPa 0,0 l/m 0,0 km/h W-NW 17,4 C 24,9 C 0,0 km/h
19.07.2013 09:00 26,9 C 56 % 1017,6 hPa 0,0 l/m 7,8 km/h N 17,4 C 26,6 C 4,3 km/h
19.07.2013 10:00 28,6 C 52 % 1017,1 hPa 0,0 l/m 1,3 km/h W-NW 17,8 C 28,6 C 0,7 km/h
19.07.2013 11:00 30,8 C 49 % 1017,1 hPa 0,0 l/m 6,5 km/h N-NO 18,8 C 30,8 C 3,6 km/h
19.07.2013 12:00 30,6 C 49 % 1016,6 hPa 0,0 l/m 5,8 km/h NO 18,6 C 30,6 C 3,2 km/h
19.07.2013 13:00 32,4 C 47 % 1016,0 hPa 0,0 l/m 0,0 km/h NW 19,6 C 32,4 C 0,0 km/h
19.07.2013 14:00 32,2 C 46 % 1015,8 hPa 0,0 l/m 8,4 km/h N 19,1 C 32,2 C 4,7 km/h
19.07.2013 15:00 31,0 C 44 % 1015,5 hPa 0,0 l/m 10,4 km/h S-SW 17,3 C 30,8 C 5,8 km/h
19.07.2013 16:00 21,9 C 68 % 1015,5 hPa 2,1 l/m 0,0 km/h S 15,7 C 21,9 C 0,0 km/h
19.07.2013 17:00 22,1 C 79 % 1015,5 hPa 0,5 l/m 0,0 km/h S 18,3 C 22,1 C 0,0 km/h
19.07.2013 18:00 29,9 C 61 % 1015,0 hPa 0,0 l/m 7,8 km/h W-SW 21,5 C 29,8 C 4,3 km/h
19.07.2013 19:00 28,5 C 63 % 1014,9 hPa 0,0 l/m 0,0 km/h N 20,8 C 28,5 C 0,0 km/h
19.07.2013 20:00 24,3 C 74 % 1014,8 hPa 0,0 l/m 0,0 km/h O-SO 19,4 C 24,3 C 0,0 km/h
19.07.2013 21:00 21,1 C 79 % 1014,8 hPa 0,0 l/m 0,0 km/h O-NO 17,3 C 21,1 C 0,0 km/h
19.07.2013 22:00 19,1 C 80 % 1015,5 hPa 0,0 l/m 0,0 km/h O-NO 15,6 C 19,1 C 0,0 km/h
19.07.2013 23:00 18,2 C 79 % 1015,7 hPa 0,0 l/m 0,0 km/h S-SW 14,5 C 18,2 C 0,0 km/h
20.07.2013 00:00 16,8 C 80 % 1015,8 hPa 0,0 l/m 0,0 km/h NO 13,3 C 16,8 C 0,0 km/h
20.07.2013 01:00 16,2 C 76 % 1016,0 hPa 0,0 l/m 0,0 km/h SO 12,0 C 16,2 C 0,0 km/h
20.07.2013 02:00 15,3 C 75 % 1015,9 hPa 0,0 l/m 0,0 km/h S 10,9 C 15,3 C 0,0 km/h
20.07.2013 03:00 14,6 C 74 % 1015,9 hPa 0,0 l/m 0,0 km/h O-NO 10,0 C 14,6 C 0,0 km/h
20.07.2013 04:00 14,3 C 73 % 1015,8 hPa 0,0 l/m 0,0 km/h S 9,5 C 14,3 C 0,0 km/h
20.07.2013 05:00 13,4 C 73 % 1015,6 hPa 0,0 l/m 0,0 km/h SO 8,7 C 13,4 C 0,0 km/h
20.07.2013 06:00 13,3 C 70 % 1015,6 hPa 0,0 l/m 0,0 km/h NO 7,9 C 13,3 C 0,0 km/h
20.07.2013 07:00 14,6 C 66 % 1016,1 hPa 0,0 l/m 0,0 km/h NW 8,3 C 14,6 C 0,0 km/h
20.07.2013 08:00 23,8 C 73 % 1016,2 hPa 0,0 l/m 0,0 km/h N-NO 18,7 C 23,8 C 0,0 km/h
20.07.2013 09:00 26,7 C 59 % 1016,3 hPa 0,0 l/m 0,0 km/h W-NW 18,0 C 26,7 C 0,0 km/h
20.07.2013 10:00 28,6 C 56 % 1016,6 hPa 0,0 l/m 1,3 km/h N-NO 18,9 C 28,6 C 0,7 km/h
20.07.2013 11:00 30,6 C 51 % 1016,2 hPa 0,0 l/m 0,0 km/h N-NW 19,3 C 30,6 C 0,0 km/h
20.07.2013 12:00 29,8 C 51 % 1015,7 hPa 0,0 l/m 0,0 km/h N-NW 18,5 C 29,8 C 0,0 km/h
20.07.2013 13:00 30,7 C 49 % 1015,2 hPa 0,0 l/m 18,8 km/h NO 18,7 C 30,1 C 10,4 km/h
20.07.2013 14:00 32,6 C 44 % 1014,7 hPa 0,0 l/m 6,5 km/h N-NO 18,7 C 32,6 C 3,6 km/h
20.07.2013 15:00 34,0 C 39 % 1014,3 hPa 0,0 l/m 0,0 km/h O-SO 18,0 C 34,0 C 0,0 km/h
20.07.2013 16:00 36,3 C 34 % 1013,8 hPa 0,0 l/m 4,5 km/h NO 17,9 C 36,3 C 2,5 km/h
20.07.2013 17:00 37,1 C 32 % 1013,9 hPa 0,0 l/m 16,8 km/h O-NO 17,6 C 37,1 C 9,4 km/h
20.07.2013 18:00 36,4 C 33 % 1013,4 hPa 0,0 l/m 0,0 km/h NO 17,5 C 36,4 C 0,0 km/h
20.07.2013 19:00 33,3 C 36 % 1013,3 hPa 0,0 l/m 16,8 km/h N 16,2 C 33,3 C 9,4 km/h
20.07.2013 20:00 27,6 C 48 % 1013,6 hPa 0,0 l/m 0,0 km/h NO 15,6 C 27,6 C 0,0 km/h
20.07.2013 21:00 24,9 C 55 % 1013,9 hPa 0,0 l/m 0,0 km/h SO 15,2 C 24,9 C 0,0 km/h
20.07.2013 22:00 20,5 C 71 % 1015,0 hPa 0,0 l/m 0,0 km/h O 15,1 C 20,5 C 0,0 km/h
20.07.2013 23:00 19,5 C 75 % 1015,0 hPa 0,0 l/m 0,0 km/h O-NO 14,9 C 19,5 C 0,0 km/h
21.07.2013 00:00 18,3 C 78 % 1015,1 hPa 0,0 l/m 0,0 km/h O-NO 14,4 C 18,3 C 0,0 km/h
21.07.2013 01:00 16,5 C 80 % 1014,8 hPa 0,0 l/m 0,0 km/h N-NW 13,0 C 16,5 C 0,0 km/h
21.07.2013 02:00 16,7 C 81 % 1014,9 hPa 0,0 l/m 0,0 km/h S 13,4 C 16,7 C 0,0 km/h
21.07.2013 03:00 15,1 C 81 % 1015,3 hPa 0,0 l/m 0,0 km/h S-SO 11,9 C 15,1 C 0,0 km/h
21.07.2013 04:00 14,4 C 80 % 1015,6 hPa 0,0 l/m 0,0 km/h NO 11,0 C 14,4 C 0,0 km/h
21.07.2013 05:00 14,6 C 78 % 1015,6 hPa 0,0 l/m 0,0 km/h O-SO 10,8 C 14,6 C 0,0 km/h
21.07.2013 06:00 14,1 C 78 % 1015,5 hPa 0,0 l/m 0,0 km/h O-SO 10,3 C 14,1 C 0,0 km/h
21.07.2013 07:00 15,6 C 75 % 1016,1 hPa 0,0 l/m 0,0 km/h NW 11,2 C 15,6 C 0,0 km/h
21.07.2013 08:00 26,3 C 65 % 1016,5 hPa 0,0 l/m 0,0 km/h W 19,2 C 26,3 C 0,0 km/h
21.07.2013 09:00 28,5 C 55 % 1016,7 hPa 0,0 l/m 0,0 km/h NW 18,6 C 28,5 C 0,0 km/h
21.07.2013 10:00 30,9 C 47 % 1016,4 hPa 0,0 l/m 0,0 km/h N-NW 18,2 C 30,9 C 0,0 km/h
21.07.2013 11:00 32,6 C 44 % 1016,2 hPa 0,0 l/m 1,9 km/h N 18,7 C 32,6 C 1,1 km/h
21.07.2013 12:00 31,2 C 49 % 1016,0 hPa 0,0 l/m 0,0 km/h N-NW 19,2 C 31,2 C 0,0 km/h
21.07.2013 13:00 32,4 C 46 % 1015,8 hPa 0,0 l/m 22,7 km/h N-NW 19,3 C 32,2 C 12,6 km/h
21.07.2013 14:00 33,6 C 41 % 1015,2 hPa 0,0 l/m 11,0 km/h O-NO 18,5 C 33,6 C 6,1 km/h
21.07.2013 15:00 35,3 C 37 % 1015,1 hPa 0,0 l/m 8,4 km/h O-NO 18,4 C 35,3 C 4,7 km/h
21.07.2013 16:00 37,6 C 33 % 1014,8 hPa 0,0 l/m 9,7 km/h O 18,5 C 37,6 C 5,4 km/h
21.07.2013 17:00 38,1 C 30 % 1014,6 hPa 0,0 l/m 9,7 km/h N 17,4 C 38,1 C 5,4 km/h
21.07.2013 18:00 37,1 C 31 % 1014,4 hPa 0,0 l/m 0,0 km/h NO 17,1 C 37,1 C 0,0 km/h
21.07.2013 19:00 34,6 C 34 % 1014,4 hPa 0,0 l/m 5,8 km/h O-NO 16,4 C 34,6 C 3,2 km/h
21.07.2013 20:00 29,2 C 44 % 1014,7 hPa 0,0 l/m 3,2 km/h S-SO 15,7 C 29,2 C 1,8 km/h
21.07.2013 21:00 24,4 C 58 % 1014,9 hPa 0,0 l/m 0,0 km/h S 15,6 C 24,4 C 0,0 km/h
21.07.2013 22:00 21,3 C 69 % 1015,4 hPa 0,0 l/m 0,0 km/h S-SO 15,4 C 21,3 C 0,0 km/h
21.07.2013 23:00 20,4 C 70 % 1015,1 hPa 0,0 l/m 0,0 km/h O-NO 14,7 C 20,4 C 0,0 km/h
Min-Datum _ 16.07.13 15.07.13 20.07.13 - 15.07.13 - 20.07.13 16.07.13 15.07.13
_ Min-Zeit 06:19 18:19 19:19 - 00:19 - 06:19 06:19 00:19
Minimum _ 11,3 C 29 % 1013,3 hPa - 0,0 km/h - 7,9 C 11,3 C 0,0 km/h
Max-Datum _ 21.07.13 15.07.13 15.07.13 19.07.13 16.07.13 - 19.07.13 21.07.13 16.07.13
_ Max-Zeit 17:19 05:19 09:19 16:19 13:19 - 18:19 17:19 13:19
Maximum _ 38,1 C 82 % 1020,5 hPa 2,1 l/m 23,3 km/h
N-NO
- 21,5 C 38,1 C 13,0 km/h
N-NO
Durchschnitt _ 23,3 C 61 % 1017,1 hPa #2,6 l/m 2,2 km/h O-NO 14,6 C 23,3 C 1,2 km/h
www.sexauwetter.de